createdAt,value
2023-04-25T00:03:54.200Z,8.90
2023-04-25T00:08:03.527Z,8.80
2023-04-25T00:12:12.568Z,8.70
2023-04-25T00:16:23.060Z,8.70
2023-04-25T00:20:32.637Z,8.60
2023-04-25T00:24:41.644Z,8.70
2023-04-25T00:28:50.874Z,8.60
2023-04-25T00:33:01.449Z,8.50
2023-04-25T00:37:10.600Z,8.30
2023-04-25T00:41:19.637Z,8.10
2023-04-25T00:45:31.873Z,8.00
2023-04-25T00:49:42.384Z,8.10
2023-04-25T00:53:52.988Z,8.10
2023-04-25T00:58:02.553Z,8.10
2023-04-25T01:02:11.682Z,8.00
2023-04-25T01:06:23.715Z,7.90
2023-04-25T01:10:32.810Z,7.90
2023-04-25T01:14:41.948Z,8.00
2023-04-25T01:18:51.601Z,8.10
2023-04-25T01:23:03.474Z,8.20
2023-04-25T01:27:13.041Z,8.20
2023-04-25T01:31:22.560Z,8.20
2023-04-25T01:35:31.756Z,8.20
2023-04-25T01:39:42.325Z,8.10
2023-04-25T01:43:51.848Z,8.00
2023-04-25T01:48:01.190Z,7.80
2023-04-25T01:52:10.474Z,7.60
2023-04-25T01:56:21.811Z,7.60
2023-04-25T02:00:30.985Z,7.40
2023-04-25T02:04:40.215Z,7.40
2023-04-25T02:08:49.529Z,7.30
2023-04-25T02:13:00.262Z,7.30
2023-04-25T02:17:09.558Z,7.30
2023-04-25T02:21:18.754Z,7.30
2023-04-25T02:25:28.371Z,7.20
2023-04-25T02:29:38.943Z,7.30
2023-04-25T02:33:49.248Z,7.30
2023-04-25T02:37:58.485Z,7.30
2023-04-25T02:42:07.637Z,7.30
2023-04-25T02:46:22.983Z,7.30
2023-04-25T02:50:38.011Z,7.30
2023-04-25T02:54:46.965Z,7.20
2023-04-25T02:58:56.402Z,7.20
2023-04-25T03:03:06.884Z,7.10
2023-04-25T03:07:15.912Z,7.10
2023-04-25T03:11:24.881Z,7.10
2023-04-25T03:15:33.918Z,7.00
2023-04-25T03:19:44.554Z,7.00
2023-04-25T03:23:53.714Z,7.00
2023-04-25T03:28:02.733Z,6.90
2023-04-25T03:32:11.849Z,6.90
2023-04-25T03:36:22.679Z,6.80
2023-04-25T03:40:31.730Z,6.70
2023-04-25T03:44:41.256Z,6.80
2023-04-25T03:48:50.307Z,6.80
2023-04-25T03:53:01.047Z,6.80
2023-04-25T03:57:10.157Z,6.60
2023-04-25T04:01:19.387Z,6.60
2023-04-25T04:05:28.642Z,6.60
2023-04-25T04:09:39.443Z,6.50
2023-04-25T04:13:48.823Z,6.60
2023-04-25T04:17:58.298Z,6.60
2023-04-25T04:22:07.287Z,6.60
2023-04-25T04:26:17.868Z,6.60
2023-04-25T04:30:30.835Z,6.60
2023-04-25T04:34:40.498Z,6.50
2023-04-25T04:38:49.574Z,6.60
2023-04-25T04:43:00.328Z,6.70
2023-04-25T04:47:09.455Z,6.70
2023-04-25T04:51:18.420Z,6.70
2023-04-25T04:55:27.613Z,6.60
2023-04-25T04:59:38.059Z,6.70
2023-04-25T05:03:47.217Z,6.70
2023-04-25T05:07:56.221Z,6.60
2023-04-25T05:12:05.392Z,6.60
2023-04-25T05:16:16.270Z,6.70
2023-04-25T05:20:25.486Z,6.70
2023-04-25T05:24:34.486Z,6.70
2023-04-25T05:28:44.204Z,6.70
2023-04-25T05:32:54.763Z,6.80
2023-04-25T05:37:03.806Z,6.90
2023-04-25T05:41:12.821Z,6.90
2023-04-25T05:45:21.791Z,6.90
2023-04-25T05:49:32.321Z,7.00
2023-04-25T05:53:41.342Z,7.10
2023-04-25T05:57:51.508Z,7.30
2023-04-25T06:02:02.168Z,7.30
2023-04-25T06:06:13.716Z,7.30
2023-04-25T06:10:22.843Z,7.40
2023-04-25T06:14:32.014Z,7.50
2023-04-25T06:18:41.082Z,7.60
2023-04-25T06:22:51.961Z,7.70
2023-04-25T06:27:13.883Z,7.90
2023-04-25T06:57:27.760Z,8.40
2023-04-25T07:01:41.973Z,8.50
2023-04-25T07:05:53.867Z,8.70
2023-04-25T11:58:01.863Z,13.10
2023-04-25T14:18:20.276Z,12.70
2023-04-25T15:05:59.507Z,12.80
2023-04-25T15:10:15.424Z,12.90
2023-04-25T15:14:24.594Z,12.80
2023-04-25T15:18:34.287Z,12.70
2023-04-25T15:22:46.655Z,12.70
2023-04-25T15:26:55.786Z,12.70
2023-04-25T15:31:04.847Z,12.60
2023-04-25T15:35:14.081Z,12.70
2023-04-25T15:39:25.261Z,12.70
2023-04-25T15:43:37.069Z,12.80
2023-04-25T15:47:46.769Z,12.80
2023-04-25T15:51:56.002Z,12.90
2023-04-25T15:56:06.960Z,12.70
2023-04-25T16:00:18.041Z,12.70
2023-04-25T16:04:31.304Z,12.70
2023-04-25T16:08:40.547Z,12.60
2023-04-25T16:12:51.922Z,12.40
2023-04-25T16:17:01.038Z,12.30
2023-04-25T16:21:10.306Z,12.20
2023-04-25T16:25:19.667Z,12.10
2023-04-25T16:29:30.337Z,12.10
2023-04-25T16:33:39.331Z,12.10
2023-04-25T16:37:48.795Z,12.10
2023-04-25T16:41:58.040Z,12.10
2023-04-25T16:46:09.066Z,12.10
2023-04-25T16:50:21.191Z,12.20
2023-04-25T16:54:35.411Z,12.20
2023-04-25T16:58:44.535Z,12.30
2023-04-25T17:02:55.165Z,12.30
2023-04-25T17:07:05.853Z,12.30
2023-04-25T17:11:15.570Z,12.20
2023-04-25T17:15:45.257Z,12.10
2023-04-25T17:24:43.752Z,12.40
2023-04-25T17:28:53.421Z,12.30
2023-04-25T17:33:03.971Z,12.20
2023-04-25T17:37:19.291Z,12.30
2023-04-25T17:45:55.531Z,12.10
2023-04-25T17:50:07.836Z,12.00
2023-04-25T17:54:17.087Z,12.10
2023-04-25T17:58:29.216Z,12.10
2023-04-25T18:02:49.074Z,12.00
2023-04-25T18:25:18.766Z,12.00
2023-04-25T18:29:33.603Z,12.10
2023-04-25T18:33:54.912Z,12.00
2023-04-25T18:38:10.050Z,12.00
2023-04-25T18:42:25.619Z,12.00
2023-04-25T18:46:37.620Z,12.00
2023-04-25T18:50:50.332Z,11.90
2023-04-25T18:54:59.608Z,12.00
2023-04-25T18:59:27.591Z,12.00
2023-04-25T19:03:37.937Z,11.90
2023-04-25T19:07:53.582Z,11.90
2023-04-25T19:12:03.576Z,12.00
2023-04-25T19:16:21.775Z,11.90
2023-04-25T19:20:31.945Z,12.00
2023-04-25T19:24:59.039Z,12.00
2023-04-25T19:29:19.637Z,12.00
2023-04-25T19:33:32.641Z,12.00
2023-04-25T19:37:47.600Z,11.90
2023-04-25T19:42:03.392Z,11.90
2023-04-25T19:46:12.828Z,11.90
2023-04-25T19:50:33.089Z,11.80
2023-04-25T19:54:45.727Z,11.80
2023-04-25T19:59:10.848Z,11.80
2023-04-25T20:03:20.676Z,11.90
2023-04-25T20:07:33.372Z,11.90
2023-04-25T20:11:42.830Z,11.80
2023-04-25T20:15:54.677Z,11.70
2023-04-25T20:20:06.702Z,11.70
2023-04-25T20:28:52.680Z,11.60
2023-04-25T20:47:13.887Z,11.60
2023-04-25T20:51:39.394Z,11.60
2023-04-25T20:56:07.711Z,11.60
2023-04-25T21:09:24.922Z,11.50
2023-04-25T21:13:35.486Z,11.40
2023-04-25T21:17:57.979Z,11.40
2023-04-25T21:22:10.438Z,11.30
2023-04-25T21:26:34.771Z,11.30
2023-04-25T21:30:44.889Z,11.30
2023-04-25T21:35:16.062Z,11.20
2023-04-25T21:39:27.915Z,11.20
2023-04-25T21:44:05.473Z,11.10
2023-04-25T21:48:14.837Z,11.20
2023-04-25T21:52:24.370Z,11.20
2023-04-25T21:56:35.187Z,11.20
2023-04-25T22:00:46.750Z,11.20
2023-04-25T22:04:57.571Z,11.20
2023-04-25T22:09:06.867Z,11.10
2023-04-25T22:13:16.728Z,11.10
2023-04-25T22:17:28.424Z,11.10
2023-04-25T22:21:38.987Z,11.10
2023-04-25T22:25:50.813Z,11.10
2023-04-25T22:30:03.826Z,11.00
2023-04-25T22:34:20.737Z,11.00
2023-04-25T22:38:32.524Z,10.90
2023-04-25T22:53:16.789Z,11.00
2023-04-25T22:57:47.978Z,10.90
2023-04-25T23:11:20.755Z,11.00
2023-04-25T23:32:20.857Z,11.00
2023-04-25T23:51:28.598Z,11.10
2023-04-25T23:55:54.952Z,11.10
